createdAt,value
2022-10-08T00:00:53.905Z,10.90
2022-10-08T00:05:37.410Z,10.90
2022-10-08T00:10:22.381Z,10.90
2022-10-08T00:15:06.443Z,11.10
2022-10-08T00:19:50.039Z,11.50
2022-10-08T00:24:33.688Z,11.20
2022-10-08T00:29:21.135Z,11.00
2022-10-08T00:34:06.631Z,10.90
2022-10-08T00:38:50.569Z,10.90
2022-10-08T00:43:44.217Z,11.00
2022-10-08T00:48:29.239Z,11.00
2022-10-08T00:53:12.809Z,10.80
2022-10-08T00:57:58.483Z,10.80
2022-10-08T01:02:42.203Z,10.70
2022-10-08T01:07:32.605Z,10.70
2022-10-08T01:12:26.255Z,10.60
2022-10-08T01:17:18.921Z,10.60
2022-10-08T01:22:14.923Z,10.80
2022-10-08T01:27:03.665Z,10.80
2022-10-08T01:31:51.932Z,10.90
2022-10-08T01:36:39.214Z,10.90
2022-10-08T01:41:26.509Z,10.90
2022-10-08T01:46:14.319Z,11.00
2022-10-08T01:51:04.368Z,11.10
2022-10-08T01:55:50.712Z,11.10
2022-10-08T02:00:35.364Z,11.20
2022-10-08T02:05:19.043Z,11.30
2022-10-08T02:10:10.271Z,11.20
2022-10-08T02:14:57.438Z,11.30
2022-10-08T02:19:49.471Z,11.20
2022-10-08T02:24:38.262Z,11.10
2022-10-08T02:29:29.249Z,11.00
2022-10-08T02:34:17.767Z,11.20
2022-10-08T02:39:05.169Z,11.50
2022-10-08T02:43:51.515Z,11.50
2022-10-08T02:48:39.062Z,11.50
2022-10-08T02:53:23.939Z,11.20
2022-10-08T02:58:10.663Z,11.10
2022-10-08T03:02:59.175Z,11.30
2022-10-08T03:07:45.544Z,11.40
2022-10-08T03:12:29.128Z,11.30
2022-10-08T03:17:17.254Z,11.30
2022-10-08T03:22:00.816Z,11.20
2022-10-08T03:26:45.706Z,11.20
2022-10-08T03:31:29.218Z,11.50
2022-10-08T03:36:12.972Z,11.60
2022-10-08T03:40:58.186Z,11.70
2022-10-08T03:45:51.485Z,11.70
2022-10-08T03:50:35.660Z,11.90
2022-10-08T03:55:19.329Z,12.00
2022-10-08T04:00:02.803Z,12.10
2022-10-08T04:04:47.835Z,12.10
2022-10-08T04:09:31.315Z,12.10
2022-10-08T04:14:14.755Z,12.10
2022-10-08T04:18:58.303Z,12.20
2022-10-08T04:23:44.656Z,12.30
2022-10-08T04:28:28.521Z,12.30
2022-10-08T04:33:12.013Z,12.30
2022-10-08T04:37:55.562Z,12.30
2022-10-08T04:42:40.479Z,12.30
2022-10-08T04:47:24.273Z,12.30
2022-10-08T04:52:07.726Z,12.20
2022-10-08T04:56:51.268Z,12.20
2022-10-08T05:01:36.356Z,12.30
2022-10-08T05:06:23.595Z,12.40
2022-10-08T05:11:07.287Z,12.40
2022-10-08T05:15:50.869Z,12.30
2022-10-08T05:20:37.370Z,12.30
2022-10-08T05:25:20.926Z,12.30
2022-10-08T05:30:05.024Z,12.40
2022-10-08T05:34:48.467Z,12.40
2022-10-08T05:39:33.378Z,12.30
2022-10-08T05:44:17.362Z,12.50
2022-10-08T05:49:02.635Z,12.50
2022-10-08T05:53:47.284Z,12.50
2022-10-08T05:58:32.328Z,12.50
2022-10-08T06:03:15.944Z,12.40
2022-10-08T06:08:00.374Z,12.30
2022-10-08T06:12:45.374Z,12.30
2022-10-08T06:17:30.652Z,12.30
2022-10-08T06:22:14.111Z,12.40
2022-10-08T06:26:57.575Z,12.40
2022-10-08T06:31:41.198Z,12.50
2022-10-08T06:36:27.649Z,12.60
2022-10-08T06:41:11.181Z,12.60
2022-10-08T06:45:56.685Z,12.70
2022-10-08T06:50:40.718Z,12.70
2022-10-08T06:55:25.657Z,12.70
2022-10-08T07:00:10.539Z,12.70
2022-10-08T07:04:54.022Z,12.70
2022-10-08T07:09:37.576Z,12.70
2022-10-08T07:14:22.592Z,12.70
2022-10-08T07:19:06.196Z,12.80
2022-10-08T07:23:49.938Z,12.80
2022-10-08T07:28:35.773Z,12.90
2022-10-08T07:33:20.885Z,13.00
2022-10-08T07:38:04.491Z,13.00
2022-10-08T07:42:48.308Z,13.20
2022-10-08T07:47:32.059Z,13.40
2022-10-08T07:52:16.916Z,13.50
2022-10-08T07:57:02.244Z,13.70
2022-10-08T08:01:46.149Z,13.70
2022-10-08T08:06:30.353Z,13.90
2022-10-08T08:11:17.021Z,14.00
2022-10-08T08:16:01.351Z,14.20
2022-10-08T08:20:44.923Z,14.20
2022-10-08T08:25:28.391Z,14.00
2022-10-08T08:30:14.475Z,13.90
2022-10-08T08:34:58.005Z,13.80
2022-10-08T08:39:41.485Z,13.80
2022-10-08T08:44:29.066Z,14.00
2022-10-08T08:49:20.176Z,14.50
2022-10-08T08:54:03.824Z,14.80
2022-10-08T08:58:53.909Z,15.00
2022-10-08T09:03:42.632Z,15.00
2022-10-08T09:08:32.441Z,15.10
2022-10-08T09:13:19.488Z,14.70
2022-10-08T09:18:05.324Z,15.00
2022-10-08T09:22:51.648Z,14.60
2022-10-08T09:27:47.284Z,14.70
2022-10-08T09:32:30.808Z,14.50
2022-10-08T09:37:22.414Z,14.40
2022-10-08T09:42:17.431Z,14.60
2022-10-08T09:47:11.758Z,14.90
2022-10-08T09:51:57.559Z,15.20
2022-10-08T09:56:41.237Z,15.30
2022-10-08T10:01:26.201Z,15.30
2022-10-08T10:06:11.246Z,15.20
2022-10-08T10:10:55.776Z,15.10
2022-10-08T10:15:44.767Z,15.10
2022-10-08T10:20:31.948Z,14.90
2022-10-08T10:25:23.356Z,15.20
2022-10-08T10:30:18.928Z,15.20
2022-10-08T10:35:08.718Z,15.20
2022-10-08T10:39:59.375Z,15.20
2022-10-08T10:44:52.914Z,15.20
2022-10-08T10:49:39.202Z,15.40
2022-10-08T10:54:44.523Z,15.70
2022-10-08T10:59:45.514Z,15.90
2022-10-08T11:04:45.575Z,15.70
2022-10-08T11:09:40.716Z,15.80
2022-10-08T11:14:48.054Z,15.60
2022-10-08T11:19:45.785Z,15.70
2022-10-08T11:24:56.409Z,15.60
2022-10-08T11:29:47.020Z,15.70
2022-10-08T11:34:34.526Z,15.70
2022-10-08T11:39:22.678Z,15.40
2022-10-08T11:44:09.527Z,14.90
2022-10-08T11:48:53.059Z,14.80
2022-10-08T11:53:36.633Z,14.50
2022-10-08T11:58:25.037Z,14.30
2022-10-08T12:03:22.310Z,14.00
2022-10-08T12:08:06.586Z,14.10
2022-10-08T12:13:24.396Z,14.30
2022-10-08T12:18:33.256Z,14.40
2022-10-08T12:23:43.699Z,14.20
2022-10-08T12:28:46.930Z,14.30
2022-10-08T12:33:36.078Z,14.40
2022-10-08T12:38:32.158Z,14.60
2022-10-08T12:43:26.249Z,14.70
2022-10-08T12:48:19.238Z,14.60
2022-10-08T12:53:05.455Z,14.30
2022-10-08T12:57:51.391Z,14.20
2022-10-08T13:02:39.218Z,14.20
2022-10-08T13:07:28.452Z,14.30
2022-10-08T13:12:13.430Z,14.20
2022-10-08T13:16:58.032Z,14.10
2022-10-08T13:21:41.563Z,14.20
2022-10-08T13:26:42.234Z,14.20
2022-10-08T13:31:27.317Z,14.10
2022-10-08T13:36:11.007Z,13.90
2022-10-08T13:40:58.916Z,13.90
2022-10-08T13:45:42.374Z,14.10
2022-10-08T13:50:27.581Z,14.10
2022-10-08T13:55:23.437Z,14.10
2022-10-08T14:00:07.723Z,14.10
2022-10-08T14:04:51.643Z,14.30
2022-10-08T14:09:36.469Z,14.40
2022-10-08T14:14:19.992Z,14.30
2022-10-08T14:19:04.381Z,14.20
2022-10-08T14:23:50.136Z,14.20
2022-10-08T14:28:35.212Z,14.30
2022-10-08T14:33:18.814Z,14.20
2022-10-08T14:38:02.289Z,14.10
2022-10-08T14:42:46.231Z,14.00
2022-10-08T14:47:31.360Z,14.00
2022-10-08T14:52:14.968Z,14.10
2022-10-08T14:56:58.689Z,14.10
2022-10-08T15:01:42.664Z,14.10
2022-10-08T15:06:28.993Z,14.00
2022-10-08T15:11:12.476Z,14.00
2022-10-08T15:15:55.946Z,13.90
2022-10-08T15:20:39.966Z,13.90
2022-10-08T15:25:24.901Z,13.80
2022-10-08T15:30:09.637Z,13.90
2022-10-08T15:34:53.137Z,13.90
2022-10-08T15:39:36.602Z,13.90
2022-10-08T15:44:22.738Z,13.90
2022-10-08T15:49:06.709Z,13.90
2022-10-08T15:53:50.536Z,13.80
2022-10-08T15:58:49.860Z,13.80
2022-10-08T16:03:40.573Z,13.80
2022-10-08T16:08:24.076Z,13.80
2022-10-08T16:13:07.951Z,13.80
2022-10-08T16:17:52.624Z,13.80
2022-10-08T16:22:37.865Z,13.80
2022-10-08T16:27:21.385Z,13.80
2022-10-08T16:32:04.954Z,13.70
2022-10-08T16:36:49.281Z,13.70
2022-10-08T16:41:36.191Z,13.70
2022-10-08T16:46:21.975Z,13.60
2022-10-08T16:51:05.645Z,13.50
2022-10-08T16:55:49.218Z,13.50
2022-10-08T17:00:36.114Z,13.50
2022-10-08T17:05:19.705Z,13.60
2022-10-08T17:10:03.377Z,13.60
2022-10-08T17:14:46.870Z,13.60
2022-10-08T17:19:32.382Z,13.50
2022-10-08T17:24:16.332Z,13.60
2022-10-08T17:29:04.733Z,13.40
2022-10-08T17:33:49.233Z,13.40
2022-10-08T17:38:35.015Z,13.40
2022-10-08T17:43:22.207Z,13.40
2022-10-08T17:48:06.249Z,13.30
2022-10-08T17:52:51.089Z,13.40
2022-10-08T17:57:36.244Z,13.30
2022-10-08T18:02:20.547Z,13.30
2022-10-08T18:07:05.056Z,13.30
2022-10-08T18:11:52.257Z,13.20
2022-10-08T18:16:38.013Z,13.20
2022-10-08T18:21:22.521Z,13.20
2022-10-08T18:26:17.618Z,13.10
2022-10-08T18:31:05.217Z,13.10
2022-10-08T18:35:50.724Z,13.10
2022-10-08T18:40:35.466Z,13.10
2022-10-08T18:45:19.313Z,13.10
2022-10-08T18:50:03.366Z,13.10
2022-10-08T18:54:49.024Z,13.10
2022-10-08T18:59:35.373Z,13.00
2022-10-08T19:04:21.927Z,13.00
2022-10-08T19:09:07.576Z,12.90
2022-10-08T19:13:54.325Z,12.90
2022-10-08T19:18:37.946Z,13.00
2022-10-08T19:23:22.251Z,13.10
2022-10-08T19:28:06.270Z,13.00
2022-10-08T19:32:53.999Z,13.00
2022-10-08T19:37:39.415Z,13.00
2022-10-08T19:42:24.522Z,13.00
2022-10-08T19:47:09.034Z,13.00
2022-10-08T19:51:55.889Z,13.00
2022-10-08T19:56:39.908Z,13.00
2022-10-08T20:01:25.746Z,13.00
2022-10-08T20:06:11.397Z,13.10
2022-10-08T20:10:58.148Z,13.00
2022-10-08T20:15:51.138Z,13.10
2022-10-08T20:20:35.277Z,13.10
2022-10-08T20:25:20.766Z,13.10
2022-10-08T20:30:06.403Z,13.10
2022-10-08T20:34:49.942Z,13.10
2022-10-08T20:39:35.836Z,13.10
2022-10-08T20:44:21.744Z,13.10
2022-10-08T20:49:07.792Z,13.10
2022-10-08T20:53:54.523Z,13.10
2022-10-08T20:58:38.245Z,13.10
2022-10-08T21:03:21.780Z,13.10
2022-10-08T21:08:08.033Z,13.10
2022-10-08T21:12:53.487Z,13.20
2022-10-08T21:17:37.558Z,13.10
2022-10-08T21:22:21.154Z,13.10
2022-10-08T21:27:06.179Z,13.00
2022-10-08T21:31:49.859Z,13.00
2022-10-08T21:36:35.388Z,13.00
2022-10-08T21:41:20.565Z,12.90
2022-10-08T21:46:05.588Z,12.90
2022-10-08T21:50:57.351Z,12.80
2022-10-08T21:55:40.879Z,12.70
2022-10-08T22:05:25.480Z,12.70
2022-10-08T22:10:12.749Z,12.60
2022-10-08T22:14:56.258Z,12.50
2022-10-08T22:19:39.674Z,12.40
2022-10-08T22:24:24.617Z,12.40
2022-10-08T22:29:08.549Z,12.20
2022-10-08T22:33:52.090Z,12.20
2022-10-08T22:38:37.868Z,12.10
2022-10-08T22:43:22.873Z,12.00
2022-10-08T22:48:09.247Z,12.00
2022-10-08T22:52:52.801Z,12.00
2022-10-08T22:57:36.233Z,12.00
2022-10-08T23:02:21.144Z,11.90
2022-10-08T23:07:04.675Z,11.80
2022-10-08T23:11:48.129Z,11.80
2022-10-08T23:16:33.994Z,11.80
2022-10-08T23:21:19.753Z,11.80
2022-10-08T23:26:07.133Z,11.80
2022-10-08T23:30:50.673Z,11.80
2022-10-08T23:35:34.204Z,11.80
2022-10-08T23:40:19.248Z,11.80
2022-10-08T23:45:02.704Z,11.80
2022-10-08T23:49:46.293Z,11.70
2022-10-08T23:54:29.673Z,11.70
2022-10-08T23:59:14.572Z,11.60
